sensor_id;sensor_type;location;lat;lon;timestamp;P1;durP1;ratioP1;P2;durP2;ratioP2
17949;SDS011;9100;48.700;9.316;2024-02-28T00:00:25;18;;;12.9;;
17949;SDS011;9100;48.700;9.316;2024-02-28T00:01:25;18;;;12.9;;
17949;SDS011;9100;48.700;9.316;2024-02-28T00:02:25;18;;;12.9;;
17949;SDS011;9100;48.700;9.316;2024-02-28T00:03:25;18;;;12.9;;
17949;SDS011;9100;48.700;9.316;2024-02-28T00:03:36;18.3;;;13.9;;
17949;SDS011;9100;48.700;9.316;2024-02-28T00:04:25;18.3;;;13.9;;
17949;SDS011;9100;48.700;9.316;2024-02-28T00:05:25;18.3;;;13.9;;
17949;SDS011;9100;48.700;9.316;2024-02-28T00:06:25;18.3;;;13.9;;
17949;SDS011;9100;48.700;9.316;2024-02-28T00:07:25;18.3;;;13.9;;
17949;SDS011;9100;48.700;9.316;2024-02-28T00:08:25;18.3;;;13.9;;
17949;SDS011;9100;48.700;9.316;2024-02-28T00:08:36;19.6;;;13;;
17949;SDS011;9100;48.700;9.316;2024-02-28T00:09:25;19.6;;;13;;
17949;SDS011;9100;48.700;9.316;2024-02-28T00:10:25;19.6;;;13;;
17949;SDS011;9100;48.700;9.316;2024-02-28T00:11:25;19.6;;;13;;
17949;SDS011;9100;48.700;9.316;2024-02-28T00:12:25;19.6;;;13;;
17949;SDS011;9100;48.700;9.316;2024-02-28T00:13:25;19.6;;;13;;
17949;SDS011;9100;48.700;9.316;2024-02-28T00:13:36;19.6;;;12.4;;
17949;SDS011;9100;48.700;9.316;2024-02-28T00:14:25;19.6;;;12.4;;
17949;SDS011;9100;48.700;9.316;2024-02-28T00:15:25;19.6;;;12.4;;
17949;SDS011;9100;48.700;9.316;2024-02-28T00:16:25;19.6;;;12.4;;
17949;SDS011;9100;48.700;9.316;2024-02-28T00:17:25;19.6;;;12.4;;
17949;SDS011;9100;48.700;9.316;2024-02-28T00:18:25;19.6;;;12.4;;
17949;SDS011;9100;48.700;9.316;2024-02-28T00:18:36;16.6;;;12.2;;
17949;SDS011;9100;48.700;9.316;2024-02-28T00:19:25;16.6;;;12.2;;
17949;SDS011;9100;48.700;9.316;2024-02-28T00:20:25;16.6;;;12.2;;
17949;SDS011;9100;48.700;9.316;2024-02-28T00:21:25;16.6;;;12.2;;
17949;SDS011;9100;48.700;9.316;2024-02-28T00:22:25;16.6;;;12.2;;
17949;SDS011;9100;48.700;9.316;2024-02-28T00:23:25;16.6;;;12.2;;
17949;SDS011;9100;48.700;9.316;2024-02-28T00:23:36;18.1;;;13;;
17949;SDS011;9100;48.700;9.316;2024-02-28T00:24:25;18.1;;;13;;
17949;SDS011;9100;48.700;9.316;2024-02-28T00:25:25;18.1;;;13;;
17949;SDS011;9100;48.700;9.316;2024-02-28T00:26:25;18.1;;;13;;
17949;SDS011;9100;48.700;9.316;2024-02-28T00:27:25;18.1;;;13;;
17949;SDS011;9100;48.700;9.316;2024-02-28T00:28:25;18.1;;;13;;
17949;SDS011;9100;48.700;9.316;2024-02-28T00:28:36;18.6;;;13.2;;
17949;SDS011;9100;48.700;9.316;2024-02-28T00:29:25;18.6;;;13.2;;
17949;SDS011;9100;48.700;9.316;2024-02-28T00:30:25;18.6;;;13.2;;
17949;SDS011;9100;48.700;9.316;2024-02-28T00:31:25;18.6;;;13.2;;
17949;SDS011;9100;48.700;9.316;2024-02-28T00:32:25;18.6;;;13.2;;
17949;SDS011;9100;48.700;9.316;2024-02-28T00:33:25;18.6;;;13.2;;
17949;SDS011;9100;48.700;9.316;2024-02-28T00:33:36;18.7;;;12.5;;
17949;SDS011;9100;48.700;9.316;2024-02-28T00:34:25;18.7;;;12.5;;
17949;SDS011;9100;48.700;9.316;2024-02-28T00:35:25;18.7;;;12.5;;
17949;SDS011;9100;48.700;9.316;2024-02-28T00:36:25;18.7;;;12.5;;
17949;SDS011;9100;48.700;9.316;2024-02-28T00:37:25;18.7;;;12.5;;
17949;SDS011;9100;48.700;9.316;2024-02-28T00:38:25;18.7;;;12.5;;
17949;SDS011;9100;48.700;9.316;2024-02-28T00:38:36;19.1;;;13.2;;
17949;SDS011;9100;48.700;9.316;2024-02-28T00:39:25;19.1;;;13.2;;
17949;SDS011;9100;48.700;9.316;2024-02-28T00:40:25;19.1;;;13.2;;
17949;SDS011;9100;48.700;9.316;2024-02-28T00:41:25;19.1;;;13.2;;
17949;SDS011;9100;48.700;9.316;2024-02-28T00:42:25;19.1;;;13.2;;
17949;SDS011;9100;48.700;9.316;2024-02-28T00:43:25;19.1;;;13.2;;
17949;SDS011;9100;48.700;9.316;2024-02-28T00:43:36;16.9;;;12.7;;
17949;SDS011;9100;48.700;9.316;2024-02-28T00:44:25;16.9;;;12.7;;
17949;SDS011;9100;48.700;9.316;2024-02-28T00:45:25;16.9;;;12.7;;
17949;SDS011;9100;48.700;9.316;2024-02-28T00:46:25;16.9;;;12.7;;
17949;SDS011;9100;48.700;9.316;2024-02-28T00:47:25;16.9;;;12.7;;
17949;SDS011;9100;48.700;9.316;2024-02-28T00:48:25;16.9;;;12.7;;
17949;SDS011;9100;48.700;9.316;2024-02-28T00:48:36;19.7;;;12.9;;
17949;SDS011;9100;48.700;9.316;2024-02-28T00:49:25;19.7;;;12.9;;
17949;SDS011;9100;48.700;9.316;2024-02-28T00:50:25;19.7;;;12.9;;
17949;SDS011;9100;48.700;9.316;2024-02-28T00:51:25;19.7;;;12.9;;
17949;SDS011;9100;48.700;9.316;2024-02-28T00:52:25;19.7;;;12.9;;
17949;SDS011;9100;48.700;9.316;2024-02-28T00:53:25;19.7;;;12.9;;
17949;SDS011;9100;48.700;9.316;2024-02-28T00:53:36;19.5;;;11.9;;
17949;SDS011;9100;48.700;9.316;2024-02-28T00:54:25;19.5;;;11.9;;
17949;SDS011;9100;48.700;9.316;2024-02-28T00:55:25;19.5;;;11.9;;
17949;SDS011;9100;48.700;9.316;2024-02-28T00:56:25;19.5;;;11.9;;
17949;SDS011;9100;48.700;9.316;2024-02-28T00:57:25;19.5;;;11.9;;
17949;SDS011;9100;48.700;9.316;2024-02-28T00:58:25;19.5;;;11.9;;
17949;SDS011;9100;48.700;9.316;2024-02-28T00:58:36;22.4;;;13.7;;
17949;SDS011;9100;48.700;9.316;2024-02-28T00:59:25;22.4;;;13.7;;
17949;SDS011;9100;48.700;9.316;2024-02-28T01:00:25;22.4;;;13.7;;
17949;SDS011;9100;48.700;9.316;2024-02-28T01:01:25;22.4;;;13.7;;
17949;SDS011;9100;48.700;9.316;2024-02-28T01:02:26;22.4;;;13.7;;
17949;SDS011;9100;48.700;9.316;2024-02-28T01:03:26;22.4;;;13.7;;
17949;SDS011;9100;48.700;9.316;2024-02-28T01:03:36;18;;;12.3;;
17949;SDS011;9100;48.700;9.316;2024-02-28T01:04:26;18;;;12.3;;
17949;SDS011;9100;48.700;9.316;2024-02-28T01:05:26;18;;;12.3;;
17949;SDS011;9100;48.700;9.316;2024-02-28T01:06:25;18;;;12.3;;
17949;SDS011;9100;48.700;9.316;2024-02-28T01:07:25;18;;;12.3;;
17949;SDS011;9100;48.700;9.316;2024-02-28T01:08:26;18;;;12.3;;
17949;SDS011;9100;48.700;9.316;2024-02-28T01:08:36;20.8;;;13.2;;
17949;SDS011;9100;48.700;9.316;2024-02-28T01:09:25;20.8;;;13.2;;
17949;SDS011;9100;48.700;9.316;2024-02-28T01:10:25;20.8;;;13.2;;
17949;SDS011;9100;48.700;9.316;2024-02-28T01:11:25;20.8;;;13.2;;
17949;SDS011;9100;48.700;9.316;2024-02-28T01:12:25;20.8;;;13.2;;
17949;SDS011;9100;48.700;9.316;2024-02-28T01:13:25;20.8;;;13.2;;
17949;SDS011;9100;48.700;9.316;2024-02-28T01:13:36;19.7;;;13;;
17949;SDS011;9100;48.700;9.316;2024-02-28T01:14:25;19.7;;;13;;
17949;SDS011;9100;48.700;9.316;2024-02-28T01:15:25;19.7;;;13;;
17949;SDS011;9100;48.700;9.316;2024-02-28T01:16:25;19.7;;;13;;
17949;SDS011;9100;48.700;9.316;2024-02-28T01:17:25;19.7;;;13;;
17949;SDS011;9100;48.700;9.316;2024-02-28T01:18:25;19.7;;;13;;
17949;SDS011;9100;48.700;9.316;2024-02-28T01:18:36;19.1;;;13;;
17949;SDS011;9100;48.700;9.316;2024-02-28T01:19:26;19.1;;;13;;
17949;SDS011;9100;48.700;9.316;2024-02-28T01:20:25;19.1;;;13;;
17949;SDS011;9100;48.700;9.316;2024-02-28T01:21:25;19.1;;;13;;
17949;SDS011;9100;48.700;9.316;2024-02-28T01:22:25;19.1;;;13;;
17949;SDS011;9100;48.700;9.316;2024-02-28T01:23:25;19.1;;;13;;
17949;SDS011;9100;48.700;9.316;2024-02-28T01:23:36;21.9;;;13;;
17949;SDS011;9100;48.700;9.316;2024-02-28T01:24:25;21.9;;;13;;
17949;SDS011;9100;48.700;9.316;2024-02-28T01:25:25;21.9;;;13;;
17949;SDS011;9100;48.700;9.316;2024-02-28T01:26:25;21.9;;;13;;
17949;SDS011;9100;48.700;9.316;2024-02-28T01:27:25;21.9;;;13;;
17949;SDS011;9100;48.700;9.316;2024-02-28T01:28:25;21.9;;;13;;
17949;SDS011;9100;48.700;9.316;2024-02-28T01:28:36;21.4;;;13.7;;
17949;SDS011;9100;48.700;9.316;2024-02-28T01:29:25;21.4;;;13.7;;
17949;SDS011;9100;48.700;9.316;2024-02-28T01:30:25;21.4;;;13.7;;
17949;SDS011;9100;48.700;9.316;2024-02-28T01:31:25;21.4;;;13.7;;
17949;SDS011;9100;48.700;9.316;2024-02-28T01:32:26;21.4;;;13.7;;
17949;SDS011;9100;48.700;9.316;2024-02-28T01:33:25;21.4;;;13.7;;
17949;SDS011;9100;48.700;9.316;2024-02-28T01:33:36;19.4;;;12.4;;
17949;SDS011;9100;48.700;9.316;2024-02-28T01:34:25;19.4;;;12.4;;
17949;SDS011;9100;48.700;9.316;2024-02-28T01:35:25;19.4;;;12.4;;
17949;SDS011;9100;48.700;9.316;2024-02-28T01:36:26;19.4;;;12.4;;
17949;SDS011;9100;48.700;9.316;2024-02-28T01:37:25;19.4;;;12.4;;
17949;SDS011;9100;48.700;9.316;2024-02-28T01:38:25;19.4;;;12.4;;
17949;SDS011;9100;48.700;9.316;2024-02-28T01:38:36;20.7;;;14;;
17949;SDS011;9100;48.700;9.316;2024-02-28T01:39:26;20.7;;;14;;
17949;SDS011;9100;48.700;9.316;2024-02-28T01:40:26;20.7;;;14;;
17949;SDS011;9100;48.700;9.316;2024-02-28T01:41:25;20.7;;;14;;
17949;SDS011;9100;48.700;9.316;2024-02-28T01:42:26;20.7;;;14;;
17949;SDS011;9100;48.700;9.316;2024-02-28T01:43:25;20.7;;;14;;
17949;SDS011;9100;48.700;9.316;2024-02-28T01:43:36;20.9;;;13.3;;
17949;SDS011;9100;48.700;9.316;2024-02-28T01:44:25;20.9;;;13.3;;
17949;SDS011;9100;48.700;9.316;2024-02-28T01:45:25;20.9;;;13.3;;
17949;SDS011;9100;48.700;9.316;2024-02-28T01:46:26;20.9;;;13.3;;
17949;SDS011;9100;48.700;9.316;2024-02-28T01:47:26;20.9;;;13.3;;
17949;SDS011;9100;48.700;9.316;2024-02-28T01:48:26;20.9;;;13.3;;
17949;SDS011;9100;48.700;9.316;2024-02-28T01:48:36;18.8;;;13.5;;
17949;SDS011;9100;48.700;9.316;2024-02-28T01:49:26;18.8;;;13.5;;
17949;SDS011;9100;48.700;9.316;2024-02-28T01:50:25;18.8;;;13.5;;
17949;SDS011;9100;48.700;9.316;2024-02-28T01:51:26;18.8;;;13.5;;
17949;SDS011;9100;48.700;9.316;2024-02-28T01:52:25;18.8;;;13.5;;
17949;SDS011;9100;48.700;9.316;2024-02-28T01:53:25;18.8;;;13.5;;
17949;SDS011;9100;48.700;9.316;2024-02-28T01:53:36;20.2;;;12.6;;
17949;SDS011;9100;48.700;9.316;2024-02-28T01:54:26;20.2;;;12.6;;
17949;SDS011;9100;48.700;9.316;2024-02-28T01:55:25;20.2;;;12.6;;
17949;SDS011;9100;48.700;9.316;2024-02-28T01:56:25;20.2;;;12.6;;
17949;SDS011;9100;48.700;9.316;2024-02-28T01:57:25;20.2;;;12.6;;
17949;SDS011;9100;48.700;9.316;2024-02-28T01:58:25;20.2;;;12.6;;
17949;SDS011;9100;48.700;9.316;2024-02-28T01:58:36;19.3;;;12.7;;
17949;SDS011;9100;48.700;9.316;2024-02-28T01:59:26;19.3;;;12.7;;
17949;SDS011;9100;48.700;9.316;2024-02-28T02:00:25;19.3;;;12.7;;
17949;SDS011;9100;48.700;9.316;2024-02-28T02:01:26;19.3;;;12.7;;
17949;SDS011;9100;48.700;9.316;2024-02-28T02:02:25;19.3;;;12.7;;
17949;SDS011;9100;48.700;9.316;2024-02-28T02:03:25;19.3;;;12.7;;
17949;SDS011;9100;48.700;9.316;2024-02-28T02:03:36;18.2;;;13.7;;
17949;SDS011;9100;48.700;9.316;2024-02-28T02:04:25;18.2;;;13.7;;
17949;SDS011;9100;48.700;9.316;2024-02-28T02:05:26;18.2;;;13.7;;
17949;SDS011;9100;48.700;9.316;2024-02-28T02:06:26;18.2;;;13.7;;
17949;SDS011;9100;48.700;9.316;2024-02-28T02:07:26;18.2;;;13.7;;
17949;SDS011;9100;48.700;9.316;2024-02-28T02:08:26;18.2;;;13.7;;
17949;SDS011;9100;48.700;9.316;2024-02-28T02:08:36;19.3;;;13.5;;
17949;SDS011;9100;48.700;9.316;2024-02-28T02:09:26;19.3;;;13.5;;
17949;SDS011;9100;48.700;9.316;2024-02-28T02:10:26;19.3;;;13.5;;
17949;SDS011;9100;48.700;9.316;2024-02-28T02:11:26;19.3;;;13.5;;
17949;SDS011;9100;48.700;9.316;2024-02-28T02:12:25;19.3;;;13.5;;
17949;SDS011;9100;48.700;9.316;2024-02-28T02:13:25;19.3;;;13.5;;
17949;SDS011;9100;48.700;9.316;2024-02-28T02:13:46;20.3;;;13.7;;
17949;SDS011;9100;48.700;9.316;2024-02-28T02:14:25;20.3;;;13.7;;
17949;SDS011;9100;48.700;9.316;2024-02-28T02:15:25;20.3;;;13.7;;
17949;SDS011;9100;48.700;9.316;2024-02-28T02:16:25;20.3;;;13.7;;
17949;SDS011;9100;48.700;9.316;2024-02-28T02:17:25;20.3;;;13.7;;
17949;SDS011;9100;48.700;9.316;2024-02-28T02:18:26;20.3;;;13.7;;
17949;SDS011;9100;48.700;9.316;2024-02-28T02:18:36;21.2;;;14.4;;
17949;SDS011;9100;48.700;9.316;2024-02-28T02:19:25;21.2;;;14.4;;
17949;SDS011;9100;48.700;9.316;2024-02-28T02:20:26;21.2;;;14.4;;
17949;SDS011;9100;48.700;9.316;2024-02-28T02:21:26;21.2;;;14.4;;
17949;SDS011;9100;48.700;9.316;2024-02-28T02:22:25;21.2;;;14.4;;
17949;SDS011;9100;48.700;9.316;2024-02-28T02:23:26;21.2;;;14.4;;
17949;SDS011;9100;48.700;9.316;2024-02-28T02:23:36;18.9;;;13.4;;
17949;SDS011;9100;48.700;9.316;2024-02-28T02:24:26;18.9;;;13.4;;
17949;SDS011;9100;48.700;9.316;2024-02-28T02:25:25;18.9;;;13.4;;
17949;SDS011;9100;48.700;9.316;2024-02-28T02:26:25;18.9;;;13.4;;
17949;SDS011;9100;48.700;9.316;2024-02-28T02:27:25;18.9;;;13.4;;
17949;SDS011;9100;48.700;9.316;2024-02-28T02:28:25;18.9;;;13.4;;
17949;SDS011;9100;48.700;9.316;2024-02-28T02:28:36;22.1;;;13.2;;
17949;SDS011;9100;48.700;9.316;2024-02-28T02:29:26;22.1;;;13.2;;
17949;SDS011;9100;48.700;9.316;2024-02-28T02:30:25;22.1;;;13.2;;
17949;SDS011;9100;48.700;9.316;2024-02-28T02:31:25;22.1;;;13.2;;
17949;SDS011;9100;48.700;9.316;2024-02-28T02:32:25;22.1;;;13.2;;
17949;SDS011;9100;48.700;9.316;2024-02-28T02:33:25;22.1;;;13.2;;
17949;SDS011;9100;48.700;9.316;2024-02-28T02:33:36;17.6;;;12.7;;
17949;SDS011;9100;48.700;9.316;2024-02-28T02:34:26;17.6;;;12.7;;
17949;SDS011;9100;48.700;9.316;2024-02-28T02:35:26;17.6;;;12.7;;
17949;SDS011;9100;48.700;9.316;2024-02-28T02:36:26;17.6;;;12.7;;
17949;SDS011;9100;48.700;9.316;2024-02-28T02:37:25;17.6;;;12.7;;
17949;SDS011;9100;48.700;9.316;2024-02-28T02:38:25;17.6;;;12.7;;
17949;SDS011;9100;48.700;9.316;2024-02-28T02:38:36;18.1;;;12.8;;
17949;SDS011;9100;48.700;9.316;2024-02-28T02:39:26;18.1;;;12.8;;
17949;SDS011;9100;48.700;9.316;2024-02-28T02:40:26;18.1;;;12.8;;
17949;SDS011;9100;48.700;9.316;2024-02-28T02:41:25;18.1;;;12.8;;
17949;SDS011;9100;48.700;9.316;2024-02-28T02:42:25;18.1;;;12.8;;
17949;SDS011;9100;48.700;9.316;2024-02-28T02:43:26;18.1;;;12.8;;
17949;SDS011;9100;48.700;9.316;2024-02-28T02:43:36;16.6;;;13;;
17949;SDS011;9100;48.700;9.316;2024-02-28T02:44:26;16.6;;;13;;
17949;SDS011;9100;48.700;9.316;2024-02-28T02:45:26;16.6;;;13;;
17949;SDS011;9100;48.700;9.316;2024-02-28T02:46:26;16.6;;;13;;
17949;SDS011;9100;48.700;9.316;2024-02-28T02:47:25;16.6;;;13;;
17949;SDS011;9100;48.700;9.316;2024-02-28T02:48:25;16.6;;;13;;
17949;SDS011;9100;48.700;9.316;2024-02-28T02:48:36;17.4;;;13.8;;
17949;SDS011;9100;48.700;9.316;2024-02-28T02:49:25;17.4;;;13.8;;
17949;SDS011;9100;48.700;9.316;2024-02-28T02:50:25;17.4;;;13.8;;
17949;SDS011;9100;48.700;9.316;2024-02-28T02:51:25;17.4;;;13.8;;
17949;SDS011;9100;48.700;9.316;2024-02-28T02:52:25;17.4;;;13.8;;
17949;SDS011;9100;48.700;9.316;2024-02-28T02:53:25;17.4;;;13.8;;
17949;SDS011;9100;48.700;9.316;2024-02-28T02:53:36;18.3;;;13.1;;
17949;SDS011;9100;48.700;9.316;2024-02-28T02:54:26;18.3;;;13.1;;
17949;SDS011;9100;48.700;9.316;2024-02-28T02:55:25;18.3;;;13.1;;
17949;SDS011;9100;48.700;9.316;2024-02-28T02:56:25;18.3;;;13.1;;
17949;SDS011;9100;48.700;9.316;2024-02-28T02:57:25;18.3;;;13.1;;
17949;SDS011;9100;48.700;9.316;2024-02-28T02:58:25;18.3;;;13.1;;
17949;SDS011;9100;48.700;9.316;2024-02-28T02:58:36;20.2;;;12.6;;
17949;SDS011;9100;48.700;9.316;2024-02-28T02:59:25;20.2;;;12.6;;
17949;SDS011;9100;48.700;9.316;2024-02-28T03:00:25;20.2;;;12.6;;
17949;SDS011;9100;48.700;9.316;2024-02-28T03:01:25;20.2;;;12.6;;
17949;SDS011;9100;48.700;9.316;2024-02-28T03:02:25;20.2;;;12.6;;
17949;SDS011;9100;48.700;9.316;2024-02-28T03:03:25;20.2;;;12.6;;
17949;SDS011;9100;48.700;9.316;2024-02-28T03:03:36;20.3;;;13.7;;
17949;SDS011;9100;48.700;9.316;2024-02-28T03:04:25;20.3;;;13.7;;
17949;SDS011;9100;48.700;9.316;2024-02-28T03:05:25;20.3;;;13.7;;
17949;SDS011;9100;48.700;9.316;2024-02-28T03:06:25;20.3;;;13.7;;
17949;SDS011;9100;48.700;9.316;2024-02-28T03:07:25;20.3;;;13.7;;
17949;SDS011;9100;48.700;9.316;2024-02-28T03:08:26;20.3;;;13.7;;
17949;SDS011;9100;48.700;9.316;2024-02-28T03:08:36;21.6;;;13.6;;
17949;SDS011;9100;48.700;9.316;2024-02-28T03:09:26;21.6;;;13.6;;
17949;SDS011;9100;48.700;9.316;2024-02-28T03:10:26;21.6;;;13.6;;
17949;SDS011;9100;48.700;9.316;2024-02-28T03:11:26;21.6;;;13.6;;
17949;SDS011;9100;48.700;9.316;2024-02-28T03:12:26;21.6;;;13.6;;
17949;SDS011;9100;48.700;9.316;2024-02-28T03:13:25;21.6;;;13.6;;
17949;SDS011;9100;48.700;9.316;2024-02-28T03:13:36;19.6;;;12.4;;
17949;SDS011;9100;48.700;9.316;2024-02-28T03:14:25;19.6;;;12.4;;
17949;SDS011;9100;48.700;9.316;2024-02-28T03:15:25;19.6;;;12.4;;
17949;SDS011;9100;48.700;9.316;2024-02-28T03:16:25;19.6;;;12.4;;
17949;SDS011;9100;48.700;9.316;2024-02-28T03:17:25;19.6;;;12.4;;
17949;SDS011;9100;48.700;9.316;2024-02-28T03:18:25;19.6;;;12.4;;
17949;SDS011;9100;48.700;9.316;2024-02-28T03:18:36;19.7;;;13.5;;
17949;SDS011;9100;48.700;9.316;2024-02-28T03:19:25;19.7;;;13.5;;
17949;SDS011;9100;48.700;9.316;2024-02-28T03:20:25;19.7;;;13.5;;
17949;SDS011;9100;48.700;9.316;2024-02-28T03:21:26;19.7;;;13.5;;
17949;SDS011;9100;48.700;9.316;2024-02-28T03:22:26;19.7;;;13.5;;
17949;SDS011;9100;48.700;9.316;2024-02-28T03:23:25;19.7;;;13.5;;
17949;SDS011;9100;48.700;9.316;2024-02-28T03:23:36;18.6;;;13.6;;
17949;SDS011;9100;48.700;9.316;2024-02-28T03:24:25;18.6;;;13.6;;
17949;SDS011;9100;48.700;9.316;2024-02-28T03:25:25;18.6;;;13.6;;
17949;SDS011;9100;48.700;9.316;2024-02-28T03:26:25;18.6;;;13.6;;
17949;SDS011;9100;48.700;9.316;2024-02-28T03:27:26;18.6;;;13.6;;
17949;SDS011;9100;48.700;9.316;2024-02-28T03:28:26;18.6;;;13.6;;
17949;SDS011;9100;48.700;9.316;2024-02-28T03:28:36;19.4;;;13.2;;
17949;SDS011;9100;48.700;9.316;2024-02-28T03:29:25;19.4;;;13.2;;
17949;SDS011;9100;48.700;9.316;2024-02-28T03:30:26;19.4;;;13.2;;
17949;SDS011;9100;48.700;9.316;2024-02-28T03:31:26;19.4;;;13.2;;
17949;SDS011;9100;48.700;9.316;2024-02-28T03:32:26;19.4;;;13.2;;
17949;SDS011;9100;48.700;9.316;2024-02-28T03:33:25;19.4;;;13.2;;
17949;SDS011;9100;48.700;9.316;2024-02-28T03:33:36;20.9;;;13.9;;
17949;SDS011;9100;48.700;9.316;2024-02-28T03:34:25;20.9;;;13.9;;
17949;SDS011;9100;48.700;9.316;2024-02-28T03:35:25;20.9;;;13.9;;
17949;SDS011;9100;48.700;9.316;2024-02-28T03:36:27;20.9;;;13.9;;
17949;SDS011;9100;48.700;9.316;2024-02-28T03:37:26;20.9;;;13.9;;
17949;SDS011;9100;48.700;9.316;2024-02-28T03:38:26;20.9;;;13.9;;
17949;SDS011;9100;48.700;9.316;2024-02-28T03:38:36;19.9;;;13.3;;
17949;SDS011;9100;48.700;9.316;2024-02-28T03:39:26;19.9;;;13.3;;
17949;SDS011;9100;48.700;9.316;2024-02-28T03:40:26;19.9;;;13.3;;
17949;SDS011;9100;48.700;9.316;2024-02-28T03:41:26;19.9;;;13.3;;
17949;SDS011;9100;48.700;9.316;2024-02-28T03:42:25;19.9;;;13.3;;
17949;SDS011;9100;48.700;9.316;2024-02-28T03:43:25;19.9;;;13.3;;
17949;SDS011;9100;48.700;9.316;2024-02-28T03:43:36;19.6;;;14;;
17949;SDS011;9100;48.700;9.316;2024-02-28T03:44:26;19.6;;;14;;
17949;SDS011;9100;48.700;9.316;2024-02-28T03:45:27;19.6;;;14;;
17949;SDS011;9100;48.700;9.316;2024-02-28T03:46:26;19.6;;;14;;
17949;SDS011;9100;48.700;9.316;2024-02-28T03:47:25;19.6;;;14;;
17949;SDS011;9100;48.700;9.316;2024-02-28T03:48:26;19.6;;;14;;
17949;SDS011;9100;48.700;9.316;2024-02-28T03:48:36;20.8;;;13;;
17949;SDS011;9100;48.700;9.316;2024-02-28T03:49:26;20.8;;;13;;
17949;SDS011;9100;48.700;9.316;2024-02-28T03:50:25;20.8;;;13;;
17949;SDS011;9100;48.700;9.316;2024-02-28T03:51:26;20.8;;;13;;
17949;SDS011;9100;48.700;9.316;2024-02-28T03:52:26;20.8;;;13;;
17949;SDS011;9100;48.700;9.316;2024-02-28T03:53:25;20.8;;;13;;
17949;SDS011;9100;48.700;9.316;2024-02-28T03:53:36;24.2;;;13.6;;
17949;SDS011;9100;48.700;9.316;2024-02-28T03:54:25;24.2;;;13.6;;
17949;SDS011;9100;48.700;9.316;2024-02-28T03:55:25;24.2;;;13.6;;
17949;SDS011;9100;48.700;9.316;2024-02-28T03:56:25;24.2;;;13.6;;
17949;SDS011;9100;48.700;9.316;2024-02-28T03:57:25;24.2;;;13.6;;
17949;SDS011;9100;48.700;9.316;2024-02-28T03:58:26;24.2;;;13.6;;
17949;SDS011;9100;48.700;9.316;2024-02-28T03:58:36;22.1;;;13.2;;
17949;SDS011;9100;48.700;9.316;2024-02-28T03:59:26;22.1;;;13.2;;
17949;SDS011;9100;48.700;9.316;2024-02-28T04:00:26;22.1;;;13.2;;
17949;SDS011;9100;48.700;9.316;2024-02-28T04:01:26;22.1;;;13.2;;
17949;SDS011;9100;48.700;9.316;2024-02-28T04:02:25;22.1;;;13.2;;
17949;SDS011;9100;48.700;9.316;2024-02-28T04:03:25;22.1;;;13.2;;
17949;SDS011;9100;48.700;9.316;2024-02-28T04:03:36;20.8;;;13.3;;
17949;SDS011;9100;48.700;9.316;2024-02-28T04:04:25;20.8;;;13.3;;
17949;SDS011;9100;48.700;9.316;2024-02-28T04:05:26;20.8;;;13.3;;
17949;SDS011;9100;48.700;9.316;2024-02-28T04:06:25;20.8;;;13.3;;
17949;SDS011;9100;48.700;9.316;2024-02-28T04:07:26;20.8;;;13.3;;
17949;SDS011;9100;48.700;9.316;2024-02-28T04:08:26;20.8;;;13.3;;
17949;SDS011;9100;48.700;9.316;2024-02-28T04:08:36;20.9;;;13.9;;
17949;SDS011;9100;48.700;9.316;2024-02-28T04:09:26;20.9;;;13.9;;
17949;SDS011;9100;48.700;9.316;2024-02-28T04:10:25;20.9;;;13.9;;
17949;SDS011;9100;48.700;9.316;2024-02-28T04:11:25;20.9;;;13.9;;
17949;SDS011;9100;48.700;9.316;2024-02-28T04:12:26;20.9;;;13.9;;
17949;SDS011;9100;48.700;9.316;2024-02-28T04:13:26;20.9;;;13.9;;
17949;SDS011;9100;48.700;9.316;2024-02-28T04:13:36;21.6;;;13.7;;
17949;SDS011;9100;48.700;9.316;2024-02-28T04:14:26;21.6;;;13.7;;
17949;SDS011;9100;48.700;9.316;2024-02-28T04:15:26;21.6;;;13.7;;
17949;SDS011;9100;48.700;9.316;2024-02-28T04:16:26;21.6;;;13.7;;
17949;SDS011;9100;48.700;9.316;2024-02-28T04:17:26;21.6;;;13.7;;
17949;SDS011;9100;48.700;9.316;2024-02-28T04:18:26;21.6;;;13.7;;
17949;SDS011;9100;48.700;9.316;2024-02-28T04:18:36;17.1;;;12.8;;
17949;SDS011;9100;48.700;9.316;2024-02-28T04:19:26;17.1;;;12.8;;
17949;SDS011;9100;48.700;9.316;2024-02-28T04:20:25;17.1;;;12.8;;
17949;SDS011;9100;48.700;9.316;2024-02-28T04:21:25;17.1;;;12.8;;
17949;SDS011;9100;48.700;9.316;2024-02-28T04:22:25;17.1;;;12.8;;
17949;SDS011;9100;48.700;9.316;2024-02-28T04:23:26;17.1;;;12.8;;
17949;SDS011;9100;48.700;9.316;2024-02-28T04:23:36;20.1;;;13.3;;
17949;SDS011;9100;48.700;9.316;2024-02-28T04:24:26;20.1;;;13.3;;
17949;SDS011;9100;48.700;9.316;2024-02-28T04:25:26;20.1;;;13.3;;
17949;SDS011;9100;48.700;9.316;2024-02-28T04:26:26;20.1;;;13.3;;
17949;SDS011;9100;48.700;9.316;2024-02-28T04:27:25;20.1;;;13.3;;
17949;SDS011;9100;48.700;9.316;2024-02-28T04:28:26;20.1;;;13.3;;
17949;SDS011;9100;48.700;9.316;2024-02-28T04:28:36;21.1;;;13.7;;
17949;SDS011;9100;48.700;9.316;2024-02-28T04:29:25;21.1;;;13.7;;
17949;SDS011;9100;48.700;9.316;2024-02-28T04:30:25;21.1;;;13.7;;
17949;SDS011;9100;48.700;9.316;2024-02-28T04:31:26;21.1;;;13.7;;
17949;SDS011;9100;48.700;9.316;2024-02-28T04:32:26;21.1;;;13.7;;
17949;SDS011;9100;48.700;9.316;2024-02-28T04:33:25;21.1;;;13.7;;
17949;SDS011;9100;48.700;9.316;2024-02-28T04:33:36;20.3;;;13.2;;
17949;SDS011;9100;48.700;9.316;2024-02-28T04:34:25;20.3;;;13.2;;
17949;SDS011;9100;48.700;9.316;2024-02-28T04:35:25;20.3;;;13.2;;
17949;SDS011;9100;48.700;9.316;2024-02-28T04:36:25;20.3;;;13.2;;
17949;SDS011;9100;48.700;9.316;2024-02-28T04:37:25;20.3;;;13.2;;
17949;SDS011;9100;48.700;9.316;2024-02-28T04:38:25;20.3;;;13.2;;
17949;SDS011;9100;48.700;9.316;2024-02-28T04:38:39;19.9;;;13.6;;
17949;SDS011;9100;48.700;9.316;2024-02-28T04:39:25;19.9;;;13.6;;
17949;SDS011;9100;48.700;9.316;2024-02-28T04:40:25;19.9;;;13.6;;
17949;SDS011;9100;48.700;9.316;2024-02-28T04:41:25;19.9;;;13.6;;
17949;SDS011;9100;48.700;9.316;2024-02-28T04:42:25;19.9;;;13.6;;
17949;SDS011;9100;48.700;9.316;2024-02-28T04:43:25;19.9;;;13.6;;
17949;SDS011;9100;48.700;9.316;2024-02-28T04:43:36;20.1;;;13.6;;
17949;SDS011;9100;48.700;9.316;2024-02-28T04:44:26;20.1;;;13.6;;
17949;SDS011;9100;48.700;9.316;2024-02-28T04:45:25;20.1;;;13.6;;
17949;SDS011;9100;48.700;9.316;2024-02-28T04:46:25;20.1;;;13.6;;
17949;SDS011;9100;48.700;9.316;2024-02-28T04:47:26;20.1;;;13.6;;
17949;SDS011;9100;48.700;9.316;2024-02-28T04:48:26;20.1;;;13.6;;
17949;SDS011;9100;48.700;9.316;2024-02-28T04:48:36;21.3;;;13.4;;
17949;SDS011;9100;48.700;9.316;2024-02-28T04:49:25;21.3;;;13.4;;
17949;SDS011;9100;48.700;9.316;2024-02-28T04:50:25;21.3;;;13.4;;
17949;SDS011;9100;48.700;9.316;2024-02-28T04:51:25;21.3;;;13.4;;
17949;SDS011;9100;48.700;9.316;2024-02-28T04:52:26;21.3;;;13.4;;
17949;SDS011;9100;48.700;9.316;2024-02-28T04:53:25;21.3;;;13.4;;
17949;SDS011;9100;48.700;9.316;2024-02-28T04:53:36;22.7;;;14.4;;
17949;SDS011;9100;48.700;9.316;2024-02-28T04:54:25;22.7;;;14.4;;
17949;SDS011;9100;48.700;9.316;2024-02-28T04:55:26;22.7;;;14.4;;
17949;SDS011;9100;48.700;9.316;2024-02-28T04:56:25;22.7;;;14.4;;
17949;SDS011;9100;48.700;9.316;2024-02-28T04:57:26;22.7;;;14.4;;
17949;SDS011;9100;48.700;9.316;2024-02-28T04:58:25;22.7;;;14.4;;
17949;SDS011;9100;48.700;9.316;2024-02-28T04:58:36;21.6;;;13.5;;
17949;SDS011;9100;48.700;9.316;2024-02-28T04:59:26;21.6;;;13.5;;
17949;SDS011;9100;48.700;9.316;2024-02-28T05:00:26;21.6;;;13.5;;
17949;SDS011;9100;48.700;9.316;2024-02-28T05:01:26;21.6;;;13.5;;
17949;SDS011;9100;48.700;9.316;2024-02-28T05:02:26;21.6;;;13.5;;
17949;SDS011;9100;48.700;9.316;2024-02-28T05:03:26;21.6;;;13.5;;
17949;SDS011;9100;48.700;9.316;2024-02-28T05:03:36;20;;;13.2;;
17949;SDS011;9100;48.700;9.316;2024-02-28T05:04:25;20;;;13.2;;
17949;SDS011;9100;48.700;9.316;2024-02-28T05:05:25;20;;;13.2;;
17949;SDS011;9100;48.700;9.316;2024-02-28T05:06:25;20;;;13.2;;
17949;SDS011;9100;48.700;9.316;2024-02-28T05:07:25;20;;;13.2;;
17949;SDS011;9100;48.700;9.316;2024-02-28T05:08:25;20;;;13.2;;